Time;durP1;ratioP1;P1;durP2;ratioP2;P2;SDS_P1;SDS_P2;PMS_P1;PMS_P2;Temp;Humidity;BMP_temperature;BMP_pressure;BME280_temperature;BME280_humidity;BME280_pressure;Samples;Min_cycle;Max_cycle;Signal;HPM_P1;HPM_P2
2023/04/23 00:01:21;;;;;;;1.52;1.42;;;;;;;;;;5016570;28;20206;-62
2023/04/23 00:03:49;;;;;;;1.50;1.40;;;;;;;;;;5016559;28;20217;-62
2023/04/23 00:06:17;;;;;;;1.50;1.40;;;;;;;;;;5017262;28;20296;-62
2023/04/23 00:08:45;;;;;;;1.60;1.50;;;;;;;;;;5016971;28;20625;-62
2023/04/23 00:11:14;;;;;;;1.33;1.23;;;;;;;;;;5016902;28;20222;-62
2023/04/23 00:13:45;;;;;;;1.48;1.38;;;;;;;;;;5012302;28;20239;-62
2023/04/23 00:16:14;;;;;;;1.50;1.40;;;;;;;;;;5008625;28;20210;-62
2023/04/23 00:18:42;;;;;;;1.30;1.20;;;;;;;;;;5020959;28;20214;-62
2023/04/23 00:21:09;;;;;;;1.70;1.60;;;;;;;;;;5020859;28;20206;-62
2023/04/23 00:23:37;;;;;;;1.60;1.50;;;;;;;;;;5020790;28;20253;-62
2023/04/23 00:26:04;;;;;;;1.55;1.45;;;;;;;;;;5020596;28;20268;-62
2023/04/23 00:28:33;;;;;;;1.83;1.50;;;;;;;;;;5020764;28;20245;-62
2023/04/23 00:31:01;;;;;;;1.50;1.40;;;;;;;;;;5021039;28;20583;-62
2023/04/23 00:33:28;;;;;;;1.50;1.40;;;;;;;;;;5021278;28;20304;-62
2023/04/23 00:35:56;;;;;;;1.55;1.45;;;;;;;;;;5020802;28;20206;-62
2023/04/23 00:38:25;;;;;;;1.60;1.50;;;;;;;;;;5020861;28;20226;-62
2023/04/23 00:40:53;;;;;;;1.77;1.67;;;;;;;;;;5020506;28;20210;-62
2023/04/23 00:43:20;;;;;;;1.50;1.40;;;;;;;;;;5020595;28;20554;-62
2023/04/23 00:45:49;;;;;;;1.40;1.30;;;;;;;;;;5020626;28;20206;-62
2023/04/23 00:48:17;;;;;;;1.38;1.27;;;;;;;;;;5020664;28;20217;-62
2023/04/23 00:50:45;;;;;;;1.67;1.58;;;;;;;;;;5020065;28;20292;-62
2023/04/23 00:53:12;;;;;;;1.35;1.25;;;;;;;;;;5019445;28;20265;-62
2023/04/23 00:55:41;;;;;;;1.30;1.20;;;;;;;;;;5020202;28;20304;-62
2023/04/23 00:58:08;;;;;;;1.70;1.60;;;;;;;;;;5020188;28;20766;-62
2023/04/23 01:00:41;;;;;;;1.48;1.38;;;;;;;;;;5020441;28;20247;-62
2023/04/23 01:03:11;;;;;;;1.42;1.25;;;;;;;;;;5020339;28;20665;-62
2023/04/23 01:05:39;;;;;;;1.30;1.20;;;;;;;;;;5020172;28;20246;-62
2023/04/23 01:08:07;;;;;;;1.27;1.17;;;;;;;;;;5020598;28;20305;-62
2023/04/23 01:10:35;;;;;;;1.48;1.38;;;;;;;;;;5019771;28;20623;-62
2023/04/23 01:13:02;;;;;;;1.70;1.60;;;;;;;;;;5020307;28;20495;-62
2023/04/23 01:15:30;;;;;;;2.08;1.38;;;;;;;;;;5020246;28;20478;-62
2023/04/23 01:17:58;;;;;;;1.30;1.20;;;;;;;;;;5020427;28;20340;-62
2023/04/23 01:20:27;;;;;;;1.40;1.30;;;;;;;;;;5019761;28;20575;-62
2023/04/23 01:22:56;;;;;;;1.45;1.35;;;;;;;;;;5018944;28;20531;-62
2023/04/23 01:25:24;;;;;;;1.50;1.40;;;;;;;;;;5019908;28;20533;-62
2023/04/23 01:27:51;;;;;;;1.55;1.45;;;;;;;;;;5019816;28;20725;-62
2023/04/23 01:30:19;;;;;;;1.40;1.30;;;;;;;;;;5019478;28;20610;-62
2023/04/23 01:32:47;;;;;;;1.58;1.48;;;;;;;;;;5019633;28;20284;-62
2023/04/23 01:35:15;;;;;;;1.42;1.30;;;;;;;;;;5019875;28;20198;-62
2023/04/23 01:37:43;;;;;;;1.75;1.23;;;;;;;;;;5019237;28;20500;-62
2023/04/23 01:40:12;;;;;;;1.63;1.52;;;;;;;;;;5019247;28;20199;-62
2023/04/23 01:42:41;;;;;;;1.27;1.17;;;;;;;;;;5018995;28;20202;-62
2023/04/23 01:45:09;;;;;;;1.50;1.40;;;;;;;;;;5018982;28;20217;-62
2023/04/23 01:47:37;;;;;;;1.50;1.40;;;;;;;;;;5019047;28;20217;-62
2023/04/23 01:50:05;;;;;;;1.50;1.40;;;;;;;;;;5018943;28;20234;-62
2023/04/23 01:52:32;;;;;;;1.40;1.30;;;;;;;;;;5018502;28;20226;-62
2023/04/23 01:55:00;;;;;;;1.60;1.50;;;;;;;;;;5019171;28;20237;-62
2023/04/23 01:57:29;;;;;;;1.45;1.30;;;;;;;;;;5019325;28;20206;-62
2023/04/23 01:59:59;;;;;;;1.38;1.27;;;;;;;;;;5019045;28;20301;-62
2023/04/23 02:02:27;;;;;;;1.58;1.48;;;;;;;;;;5019201;28;20249;-62
2023/04/23 02:04:55;;;;;;;1.92;1.60;;;;;;;;;;5019111;28;20237;-62
2023/04/23 02:07:23;;;;;;;1.50;1.40;;;;;;;;;;5018968;28;20217;-62
2023/04/23 02:09:50;;;;;;;1.60;1.50;;;;;;;;;;5018746;28;20210;-62
2023/04/23 02:12:18;;;;;;;1.30;1.20;;;;;;;;;;5018661;28;20214;-62
2023/04/23 02:14:46;;;;;;;1.58;1.48;;;;;;;;;;5019255;28;20264;-62
2023/04/23 02:17:14;;;;;;;1.52;1.42;;;;;;;;;;5018580;28;20253;-62
2023/04/23 02:19:42;;;;;;;1.50;1.40;;;;;;;;;;5018675;28;20212;-62
2023/04/23 02:22:09;;;;;;;1.38;1.27;;;;;;;;;;5018801;28;20241;-62
2023/04/23 02:24:37;;;;;;;1.30;1.20;;;;;;;;;;5018134;28;20206;-62
2023/04/23 02:27:05;;;;;;;1.25;1.17;;;;;;;;;;5018023;28;20589;-62
2023/04/23 02:29:32;;;;;;;1.38;1.27;;;;;;;;;;5018720;28;20241;-62
2023/04/23 02:32:01;;;;;;;1.50;1.40;;;;;;;;;;5018048;28;20320;-62
2023/04/23 02:34:29;;;;;;;1.20;1.10;;;;;;;;;;5017399;28;20237;-62
2023/04/23 02:36:56;;;;;;;1.55;1.45;;;;;;;;;;5018522;28;20206;-62
2023/04/23 02:39:24;;;;;;;1.42;1.33;;;;;;;;;;5018318;28;20207;-62
2023/04/23 02:41:52;;;;;;;1.58;1.48;;;;;;;;;;5017788;28;20498;-62
2023/04/23 02:44:19;;;;;;;1.45;1.35;;;;;;;;;;5018262;28;20293;-62
2023/04/23 02:46:47;;;;;;;1.50;1.40;;;;;;;;;;5017873;28;20213;-62
2023/04/23 02:49:15;;;;;;;1.50;1.40;;;;;;;;;;5018477;28;20280;-62
2023/04/23 02:51:43;;;;;;;1.50;1.40;;;;;;;;;;5017714;28;20321;-62
2023/04/23 02:54:11;;;;;;;1.45;1.35;;;;;;;;;;5017993;28;20218;-62
2023/04/23 02:56:38;;;;;;;1.42;1.33;;;;;;;;;;5017802;28;20217;-62
2023/04/23 02:59:07;;;;;;;1.65;1.55;;;;;;;;;;5018052;28;20237;-62
2023/04/23 03:01:34;;;;;;;1.50;1.40;;;;;;;;;;5018211;28;20203;-62
2023/04/23 03:04:02;;;;;;;1.40;1.30;;;;;;;;;;5017831;28;20206;-62
2023/04/23 03:06:33;;;;;;;1.67;1.58;;;;;;;;;;5017896;28;20269;-62
2023/04/23 03:09:01;;;;;;;1.35;1.25;;;;;;;;;;5018029;28;20245;-62
2023/04/23 03:11:28;;;;;;;1.40;1.30;;;;;;;;;;5017790;28;20236;-62
2023/04/23 03:13:55;;;;;;;1.55;1.45;;;;;;;;;;5018053;28;20500;-62
2023/04/23 03:16:23;;;;;;;1.23;1.20;;;;;;;;;;5017481;28;20237;-63
2023/04/23 03:18:50;;;;;;;1.40;1.30;;;;;;;;;;5017522;28;20210;-62
2023/04/23 03:21:18;;;;;;;1.35;1.25;;;;;;;;;;5017000;28;20296;-62
2023/04/23 03:23:47;;;;;;;1.67;1.58;;;;;;;;;;5017746;28;20473;-62
2023/04/23 03:26:14;;;;;;;1.38;1.27;;;;;;;;;;5017632;28;20668;-62
2023/04/23 03:28:42;;;;;;;1.40;1.30;;;;;;;;;;5017942;28;20280;-62
2023/04/23 03:31:10;;;;;;;1.50;1.40;;;;;;;;;;5017782;28;20325;-62
2023/04/23 03:33:37;;;;;;;1.45;1.35;;;;;;;;;;5017362;28;20207;-62
2023/04/23 03:36:05;;;;;;;1.40;1.30;;;;;;;;;;5017334;28;20206;-62
2023/04/23 03:38:33;;;;;;;1.23;1.17;;;;;;;;;;5017299;28;20460;-62
2023/04/23 03:41:02;;;;;;;1.45;1.35;;;;;;;;;;5017541;28;20210;-62
2023/04/23 03:43:29;;;;;;;1.50;1.40;;;;;;;;;;5017269;28;20237;-62
2023/04/23 03:45:57;;;;;;;1.40;1.30;;;;;;;;;;5016615;28;20272;-62
2023/04/23 03:48:25;;;;;;;1.20;1.10;;;;;;;;;;5017515;28;20210;-62
2023/04/23 03:50:52;;;;;;;1.60;1.50;;;;;;;;;;5016950;28;20736;-62
2023/04/23 03:53:20;;;;;;;1.50;1.40;;;;;;;;;;5016913;28;20276;-62
2023/04/23 03:55:47;;;;;;;1.60;1.33;;;;;;;;;;5017099;28;20571;-62
2023/04/23 03:58:16;;;;;;;1.30;1.20;;;;;;;;;;5017469;28;20296;-62
2023/04/23 04:00:44;;;;;;;1.30;1.20;;;;;;;;;;5017212;28;20213;-62
2023/04/23 04:03:11;;;;;;;1.50;1.30;;;;;;;;;;5017234;28;20205;-62
2023/04/23 04:05:39;;;;;;;1.35;1.25;;;;;;;;;;5017165;28;20214;-62
2023/04/23 04:08:06;;;;;;;1.50;1.40;;;;;;;;;;5016992;28;20217;-62
2023/04/23 04:10:33;;;;;;;1.23;1.15;;;;;;;;;;5016701;28;20234;-62
2023/04/23 04:13:01;;;;;;;1.30;1.20;;;;;;;;;;5017073;28;20205;-62
2023/04/23 04:15:31;;;;;;;1.17;1.15;;;;;;;;;;5017183;28;20245;-62
2023/04/23 04:17:59;;;;;;;1.50;1.40;;;;;;;;;;5017327;28;20629;-62
2023/04/23 04:20:28;;;;;;;1.50;1.40;;;;;;;;;;5017108;28;20214;-62
2023/04/23 04:22:56;;;;;;;1.42;1.33;;;;;;;;;;5016938;28;20265;-62
2023/04/23 04:25:23;;;;;;;1.27;1.17;;;;;;;;;;5016690;28;20264;-62
2023/04/23 04:27:51;;;;;;;1.50;1.30;;;;;;;;;;5016635;28;20297;-62
2023/04/23 04:30:18;;;;;;;1.38;1.27;;;;;;;;;;5016941;28;20589;-62
2023/04/23 04:32:49;;;;;;;1.45;1.35;;;;;;;;;;5017235;28;20530;-62
2023/04/23 04:35:16;;;;;;;1.33;1.23;;;;;;;;;;5017089;28;20206;-62
2023/04/23 04:37:44;;;;;;;1.38;1.27;;;;;;;;;;5016920;28;20206;-62
2023/04/23 04:40:12;;;;;;;1.40;1.30;;;;;;;;;;5017379;28;20206;-62
2023/04/23 04:42:39;;;;;;;1.25;1.17;;;;;;;;;;5016649;28;20210;-62
2023/04/23 04:45:07;;;;;;;1.10;1.00;;;;;;;;;;5016740;28;20237;-62
2023/04/23 04:47:35;;;;;;;1.20;1.10;;;;;;;;;;5017152;28;20210;-62
2023/04/23 04:50:04;;;;;;;1.15;1.05;;;;;;;;;;5016538;28;20213;-63
2023/04/23 04:52:31;;;;;;;1.40;1.30;;;;;;;;;;5015793;28;20614;-62
2023/04/23 04:54:58;;;;;;;1.30;1.20;;;;;;;;;;5016133;28;20207;-62
2023/04/23 04:57:26;;;;;;;1.20;1.10;;;;;;;;;;5016875;28;20586;-62
2023/04/23 04:59:54;;;;;;;1.30;1.20;;;;;;;;;;5020151;28;20527;-62
2023/04/23 05:02:22;;;;;;;1.30;1.20;;;;;;;;;;5020211;28;20218;-62
2023/04/23 05:04:49;;;;;;;1.40;1.30;;;;;;;;;;5020057;28;20207;-62
2023/04/23 05:07:18;;;;;;;1.27;1.17;;;;;;;;;;5019747;28;20206;-62
2023/04/23 05:09:45;;;;;;;1.35;1.25;;;;;;;;;;5020220;28;20234;-62
2023/04/23 05:12:13;;;;;;;1.30;1.20;;;;;;;;;;5020305;28;20230;-62
2023/04/23 05:14:40;;;;;;;1.23;1.13;;;;;;;;;;5019882;28;20268;-62
2023/04/23 05:17:07;;;;;;;1.20;1.20;;;;;;;;;;5019409;28;20257;-62
2023/04/23 05:19:34;;;;;;;1.33;1.23;;;;;;;;;;5020101;28;20222;-62
2023/04/23 05:22:02;;;;;;;1.40;1.30;;;;;;;;;;5019830;28;20209;-62
2023/04/23 05:24:31;;;;;;;1.10;1.10;;;;;;;;;;5019856;28;20312;-62
2023/04/23 05:26:59;;;;;;;1.30;1.20;;;;;;;;;;5019842;28;20288;-62
2023/04/23 05:29:26;;;;;;;1.10;1.10;;;;;;;;;;5019321;28;20213;-62
2023/04/23 05:31:53;;;;;;;1.13;1.10;;;;;;;;;;5019281;28;20238;-62
2023/04/23 05:34:20;;;;;;;1.25;1.15;;;;;;;;;;5019054;28;20217;-62
2023/04/23 05:36:48;;;;;;;1.20;1.20;;;;;;;;;;5019482;28;20215;-62
2023/04/23 05:39:16;;;;;;;1.10;1.10;;;;;;;;;;5019636;28;20214;-62
2023/04/23 05:41:45;;;;;;;1.30;1.20;;;;;;;;;;5019127;28;20214;-62
2023/04/23 05:44:12;;;;;;;1.23;1.13;;;;;;;;;;5019200;28;20210;-62
2023/04/23 05:46:39;;;;;;;1.10;1.00;;;;;;;;;;5019317;28;20206;-62
2023/04/23 05:49:07;;;;;;;1.20;1.10;;;;;;;;;;5019054;28;20272;-62
2023/04/23 05:51:34;;;;;;;1.35;1.25;;;;;;;;;;5019347;28;20234;-62
2023/04/23 05:54:02;;;;;;;1.40;1.30;;;;;;;;;;5018896;28;20214;-62
2023/04/23 05:56:29;;;;;;;1.10;1.00;;;;;;;;;;5018812;28;20793;-62
2023/04/23 05:58:58;;;;;;;1.40;1.30;;;;;;;;;;5018695;28;20206;-62
2023/04/23 06:01:25;;;;;;;1.10;1.10;;;;;;;;;;5019028;28;20217;-62
2023/04/23 06:03:53;;;;;;;1.13;1.08;;;;;;;;;;5018707;28;20233;-62
2023/04/23 06:06:20;;;;;;;1.23;1.13;;;;;;;;;;5018327;28;20206;-62
2023/04/23 06:08:49;;;;;;;1.20;1.20;;;;;;;;;;5017925;28;20233;-62
2023/04/23 06:11:17;;;;;;;1.30;1.20;;;;;;;;;;5017865;28;20602;-62
2023/04/23 06:13:44;;;;;;;1.08;1.00;;;;;;;;;;5018407;28;20217;-62
2023/04/23 06:16:13;;;;;;;0.95;0.95;;;;;;;;;;5017919;28;20604;-62
2023/04/23 06:18:41;;;;;;;0.98;0.98;;;;;;;;;;5018467;28;20584;-62
2023/04/23 06:21:08;;;;;;;1.10;1.10;;;;;;;;;;5018117;28;20233;-62
2023/04/23 06:23:35;;;;;;;0.90;0.90;;;;;;;;;;5018550;28;20214;-62
2023/04/23 06:26:03;;;;;;;1.23;1.13;;;;;;;;;;5018205;28;20207;-62
2023/04/23 06:28:31;;;;;;;1.20;1.20;;;;;;;;;;5018086;28;20214;-62
2023/04/23 06:30:58;;;;;;;1.13;1.02;;;;;;;;;;5018233;28;20206;-62
2023/04/23 06:33:27;;;;;;;1.10;1.00;;;;;;;;;;5017938;28;20213;-62
2023/04/23 06:35:54;;;;;;;1.27;1.17;;;;;;;;;;5018209;28;20214;-62
2023/04/23 06:38:21;;;;;;;0.98;0.98;;;;;;;;;;5018310;28;20214;-62
2023/04/23 06:40:49;;;;;;;1.00;1.00;;;;;;;;;;5018054;28;20537;-62
2023/04/23 06:43:16;;;;;;;1.08;1.08;;;;;;;;;;5018009;28;20198;-62
2023/04/23 06:45:44;;;;;;;1.30;1.20;;;;;;;;;;5018111;28;20207;-62
2023/04/23 06:48:11;;;;;;;1.02;1.02;;;;;;;;;;5017563;28;20289;-62
2023/04/23 06:50:40;;;;;;;1.40;1.30;;;;;;;;;;5017660;28;20241;-62
2023/04/23 06:53:07;;;;;;;1.00;1.00;;;;;;;;;;5017477;28;20368;-62
2023/04/23 06:55:35;;;;;;;1.13;1.13;;;;;;;;;;5018141;28;20214;-62
2023/04/23 06:58:02;;;;;;;1.35;1.25;;;;;;;;;;5018126;28;20218;-62
2023/04/23 07:00:30;;;;;;;1.27;1.17;;;;;;;;;;5017340;28;20273;-62
2023/04/23 07:02:57;;;;;;;1.02;1.02;;;;;;;;;;5017573;28;20202;-62
2023/04/23 07:05:24;;;;;;;1.10;1.00;;;;;;;;;;5017678;28;20214;-62
2023/04/23 07:07:53;;;;;;;1.20;1.10;;;;;;;;;;5017920;28;20229;-62
2023/04/23 07:10:20;;;;;;;1.10;1.10;;;;;;;;;;5017848;28;20206;-62
2023/04/23 07:12:48;;;;;;;1.10;1.00;;;;;;;;;;5016919;28;20237;-62
2023/04/23 07:15:15;;;;;;;1.30;1.20;;;;;;;;;;5017312;28;20214;-62
2023/04/23 07:17:43;;;;;;;1.30;1.20;;;;;;;;;;4997958;28;20503;-62
2023/04/23 07:20:10;;;;;;;1.33;1.23;;;;;;;;;;4997094;28;20524;-62
2023/04/23 07:22:38;;;;;;;1.02;1.02;;;;;;;;;;4996860;28;20540;-62
2023/04/23 07:25:08;;;;;;;1.00;1.00;;;;;;;;;;4997633;28;20215;-62
2023/04/23 07:27:36;;;;;;;1.10;1.10;;;;;;;;;;4997312;28;20250;-62
2023/04/23 07:30:03;;;;;;;1.17;1.13;;;;;;;;;;4997523;28;20273;-62
2023/04/23 07:32:31;;;;;;;1.20;1.10;;;;;;;;;;4996750;28;20619;-62
2023/04/23 07:34:58;;;;;;;1.20;1.10;;;;;;;;;;4997346;28;20659;-62
2023/04/23 07:37:25;;;;;;;1.20;1.10;;;;;;;;;;4997047;28;20230;-62
2023/04/23 07:39:53;;;;;;;1.25;1.10;;;;;;;;;;4997509;28;20210;-62
2023/04/23 07:42:22;;;;;;;1.23;1.13;;;;;;;;;;4997443;28;20246;-62
2023/04/23 07:44:49;;;;;;;1.05;1.05;;;;;;;;;;4997555;28;20218;-62
2023/04/23 07:47:16;;;;;;;1.60;1.40;;;;;;;;;;4997069;28;20638;-62
2023/04/23 07:49:44;;;;;;;1.00;1.00;;;;;;;;;;4997607;28;20207;-62
2023/04/23 07:52:11;;;;;;;0.90;0.90;;;;;;;;;;4996599;28;20345;-62
2023/04/23 07:54:38;;;;;;;1.40;1.30;;;;;;;;;;4996657;28;20214;-62
2023/04/23 07:57:06;;;;;;;1.10;1.00;;;;;;;;;;4996405;28;20281;-62
2023/04/23 07:59:34;;;;;;;1.05;1.05;;;;;;;;;;4996775;28;20233;-62
2023/04/23 08:02:02;;;;;;;1.17;1.17;;;;;;;;;;5009550;28;20598;-62
2023/04/23 08:04:30;;;;;;;1.17;1.08;;;;;;;;;;5015865;28;20292;-62
2023/04/23 08:06:57;;;;;;;1.27;1.17;;;;;;;;;;5016400;28;20210;-62
2023/04/23 08:09:25;;;;;;;1.10;1.00;;;;;;;;;;5016320;28;20608;-62
2023/04/23 08:11:53;;;;;;;1.02;1.00;;;;;;;;;;5016592;28;20226;-62
2023/04/23 08:14:20;;;;;;;0.90;0.90;;;;;;;;;;5016722;28;20206;-62
2023/04/23 08:16:49;;;;;;;0.98;0.98;;;;;;;;;;5016229;28;20237;-61
2023/04/23 08:19:17;;;;;;;1.10;1.05;;;;;;;;;;5016715;28;20283;-62
2023/04/23 08:21:44;;;;;;;1.10;1.00;;;;;;;;;;5016065;28;20214;-62
2023/04/23 08:24:11;;;;;;;1.00;1.00;;;;;;;;;;5015637;28;20206;-62
2023/04/23 08:26:39;;;;;;;1.10;1.10;;;;;;;;;;5016376;28;20221;-62
2023/04/23 08:29:06;;;;;;;1.15;1.13;;;;;;;;;;5016469;28;20217;-62
2023/04/23 08:31:33;;;;;;;0.90;0.90;;;;;;;;;;5016472;28;20206;-62
2023/04/23 08:34:02;;;;;;;0.77;0.77;;;;;;;;;;5019492;28;20237;-62
2023/04/23 08:36:29;;;;;;;1.30;1.20;;;;;;;;;;5020427;28;20206;-62
2023/04/23 08:38:57;;;;;;;1.00;1.00;;;;;;;;;;5020312;28;20217;-62
2023/04/23 08:41:25;;;;;;;0.95;0.95;;;;;;;;;;5019905;28;20245;-62
2023/04/23 08:43:55;;;;;;;0.90;0.90;;;;;;;;;;5019541;28;20202;-63
2023/04/23 08:46:23;;;;;;;1.00;1.00;;;;;;;;;;5019853;28;20202;-62
2023/04/23 08:48:52;;;;;;;0.80;0.80;;;;;;;;;;5018795;28;20233;-62
2023/04/23 08:51:22;;;;;;;0.98;0.98;;;;;;;;;;5019736;28;20214;-62
2023/04/23 08:53:51;;;;;;;1.10;1.10;;;;;;;;;;5019633;28;20250;-62
2023/04/23 08:56:19;;;;;;;0.80;0.80;;;;;;;;;;5019198;28;20249;-62
2023/04/23 08:58:47;;;;;;;1.20;1.10;;;;;;;;;;5019592;28;20207;-62
2023/04/23 09:01:15;;;;;;;0.90;0.90;;;;;;;;;;5019129;28;20579;-62
2023/04/23 09:03:43;;;;;;;1.08;1.08;;;;;;;;;;5019556;28;20210;-62
2023/04/23 09:06:10;;;;;;;1.00;1.00;;;;;;;;;;5018762;28;20213;-62
2023/04/23 09:08:39;;;;;;;0.80;0.80;;;;;;;;;;5019183;28;20225;-62
2023/04/23 09:11:07;;;;;;;1.48;1.02;;;;;;;;;;5019162;28;20213;-62
2023/04/23 09:13:36;;;;;;;0.98;0.90;;;;;;;;;;5019072;28;20328;-62
2023/04/23 09:16:03;;;;;;;0.80;0.80;;;;;;;;;;5019109;28;20206;-62
2023/04/23 09:18:30;;;;;;;1.38;1.10;;;;;;;;;;5018688;28;20214;-62
2023/04/23 09:20:58;;;;;;;0.88;0.88;;;;;;;;;;5018961;28;20214;-62
2023/04/23 09:23:25;;;;;;;1.00;0.90;;;;;;;;;;5019083;28;20203;-62
2023/04/23 09:25:54;;;;;;;1.20;1.10;;;;;;;;;;5019393;28;20206;-62
2023/04/23 09:28:21;;;;;;;1.00;0.90;;;;;;;;;;5019460;28;20217;-62
2023/04/23 09:30:49;;;;;;;1.00;0.90;;;;;;;;;;5019173;28;20265;-62
2023/04/23 09:33:17;;;;;;;0.93;0.93;;;;;;;;;;5018659;28;20256;-62
2023/04/23 09:35:46;;;;;;;0.90;0.90;;;;;;;;;;5019214;28;20206;-62
2023/04/23 09:38:14;;;;;;;1.05;1.00;;;;;;;;;;5018672;28;20214;-62
2023/04/23 09:40:41;;;;;;;0.80;0.80;;;;;;;;;;5018497;28;20213;-62
2023/04/23 09:43:11;;;;;;;1.00;1.00;;;;;;;;;;5018273;28;20830;-62
2023/04/23 09:45:48;;;;;;;0.80;0.80;;;;;;;;;;5017702;28;20543;-62
2023/04/23 09:48:15;;;;;;;0.93;0.93;;;;;;;;;;5019072;28;20264;-62
2023/04/23 09:50:42;;;;;;;1.20;1.08;;;;;;;;;;5018060;28;20206;-62
2023/04/23 09:53:10;;;;;;;1.20;0.90;;;;;;;;;;5018145;28;20333;-62
2023/04/23 09:55:40;;;;;;;1.42;0.82;;;;;;;;;;5018243;28;20214;-62
2023/04/23 09:58:11;;;;;;;1.92;1.00;;;;;;;;;;5018168;28;20560;-62
2023/04/23 10:00:40;;;;;;;1.10;1.00;;;;;;;;;;5018491;28;20214;-62
2023/04/23 10:03:08;;;;;;;1.10;1.00;;;;;;;;;;5018247;28;20206;-62
2023/04/23 10:05:39;;;;;;;0.80;0.80;;;;;;;;;;5017973;28;20234;-62
2023/04/23 10:08:07;;;;;;;2.00;0.90;;;;;;;;;;5017995;28;20249;-62
2023/04/23 10:10:34;;;;;;;0.90;0.90;;;;;;;;;;5017839;28;20214;-62
2023/04/23 10:13:02;;;;;;;1.00;1.00;;;;;;;;;;5017797;28;20226;-62
2023/04/23 10:15:29;;;;;;;1.73;0.85;;;;;;;;;;5017329;28;20216;-62
2023/04/23 10:17:59;;;;;;;2.05;1.15;;;;;;;;;;5017436;28;20213;-62
2023/04/23 10:20:26;;;;;;;1.58;0.90;;;;;;;;;;5017530;28;20249;-62
2023/04/23 10:22:55;;;;;;;0.90;0.90;;;;;;;;;;5017830;28;20210;-62
2023/04/23 10:25:23;;;;;;;1.10;1.08;;;;;;;;;;5017620;28;20301;-62
2023/04/23 10:27:53;;;;;;;1.60;1.05;;;;;;;;;;5017258;28;20605;-62
2023/04/23 10:30:21;;;;;;;1.75;1.00;;;;;;;;;;5017380;28;20583;-62
2023/04/23 10:32:49;;;;;;;1.10;1.00;;;;;;;;;;5017676;28;20234;-62
2023/04/23 10:35:18;;;;;;;1.10;1.08;;;;;;;;;;5017832;28;20207;-62
2023/04/23 10:37:46;;;;;;;1.10;1.00;;;;;;;;;;5017918;28;20214;-63
2023/04/23 10:40:15;;;;;;;1.30;1.20;;;;;;;;;;5017272;28;20214;-62
2023/04/23 10:42:43;;;;;;;1.30;1.20;;;;;;;;;;5016714;28;20214;-62
2023/04/23 10:45:14;;;;;;;1.30;1.20;;;;;;;;;;5017079;28;20558;-62
2023/04/23 10:47:43;;;;;;;1.40;1.30;;;;;;;;;;5016875;28;20218;-62
2023/04/23 10:50:23;;;;;;;1.30;1.20;;;;;;;;;;5017351;28;20249;-62
2023/04/23 10:52:52;;;;;;;1.55;1.33;;;;;;;;;;5016738;28;20242;-62
2023/04/23 10:55:20;;;;;;;1.50;1.40;;;;;;;;;;5016567;28;20284;-62
2023/04/23 10:58:02;;;;;;;1.63;1.50;;;;;;;;;;5017058;28;20234;-62
2023/04/23 11:00:30;;;;;;;1.38;1.27;;;;;;;;;;5014363;28;20617;-62
2023/04/23 11:02:58;;;;;;;1.77;1.60;;;;;;;;;;5016798;28;20202;-62
2023/04/23 11:05:28;;;;;;;1.58;1.10;;;;;;;;;;5016560;28;20206;-62
2023/04/23 11:08:05;;;;;;;1.45;1.35;;;;;;;;;;5016752;28;20302;-62
2023/04/23 11:10:32;;;;;;;1.70;1.30;;;;;;;;;;5016934;28;20593;-62
2023/04/23 11:13:20;;;;;;;1.58;1.27;;;;;;;;;;5016721;28;20261;-62
2023/04/23 11:15:47;;;;;;;2.47;1.50;;;;;;;;;;5016375;28;20198;-62
2023/04/23 11:18:15;;;;;;;1.65;1.55;;;;;;;;;;5016332;28;20206;-62
2023/04/23 11:20:43;;;;;;;1.50;1.40;;;;;;;;;;5016377;28;20214;-62
2023/04/23 11:23:31;;;;;;;1.30;1.20;;;;;;;;;;5016186;28;20261;-62
2023/04/23 11:25:58;;;;;;;1.48;1.33;;;;;;;;;;5016338;28;20213;-62
2023/04/23 11:28:26;;;;;;;2.05;1.38;;;;;;;;;;5017234;28;20621;-62
2023/04/23 11:30:54;;;;;;;1.98;1.40;;;;;;;;;;5016859;28;20478;-62
2023/04/23 11:33:22;;;;;;;1.80;1.20;;;;;;;;;;5016589;28;20285;-62
2023/04/23 11:35:50;;;;;;;1.40;1.30;;;;;;;;;;5016237;28;20217;-62
2023/04/23 11:38:18;;;;;;;2.00;1.40;;;;;;;;;;5016558;28;20215;-62
2023/04/23 11:40:47;;;;;;;1.30;1.20;;;;;;;;;;5016336;28;20206;-62
2023/04/23 11:43:20;;;;;;;1.58;1.48;;;;;;;;;;5015374;28;20202;-62
2023/04/23 11:45:48;;;;;;;1.50;1.40;;;;;;;;;;5015509;28;20234;-62
2023/04/23 11:48:15;;;;;;;1.50;1.40;;;;;;;;;;5015390;28;20213;-62
2023/04/23 11:50:42;;;;;;;1.60;1.50;;;;;;;;;;5015767;28;20203;-62
2023/04/23 11:53:11;;;;;;;1.55;1.45;;;;;;;;;;5015570;28;20245;-62
2023/04/23 12:00:43;;;;;;;2.53;1.45;;;;;;;;;;5031351;28;20332;-57
2023/04/23 12:03:12;;;;;;;2.83;1.50;;;;;;;;;;5035299;28;20693;-57
2023/04/23 12:05:42;;;;;;;2.25;1.65;;;;;;;;;;5035254;28;20240;-57
2023/04/23 12:08:12;;;;;;;3.00;1.65;;;;;;;;;;5036841;28;20208;-57
2023/04/23 12:10:43;;;;;;;2.58;1.70;;;;;;;;;;5039311;28;20562;-57
2023/04/23 12:13:14;;;;;;;4.20;1.60;;;;;;;;;;5039177;28;20236;-57
2023/04/23 12:15:45;;;;;;;3.10;1.45;;;;;;;;;;5039993;28;20762;-57
2023/04/23 12:18:13;;;;;;;1.95;1.80;;;;;;;;;;5039565;28;20213;-57
2023/04/23 12:20:40;;;;;;;1.60;1.50;;;;;;;;;;5039136;28;20210;-57
2023/04/23 12:23:08;;;;;;;1.67;1.45;;;;;;;;;;5039048;28;20209;-57
2023/04/23 12:25:37;;;;;;;1.95;1.35;;;;;;;;;;5039362;28;20206;-57
2023/04/23 12:28:05;;;;;;;2.50;1.60;;;;;;;;;;5039403;28;20226;-57
2023/04/23 12:30:34;;;;;;;4.35;2.00;;;;;;;;;;5037984;28;20300;-57
2023/04/23 12:33:01;;;;;;;1.95;1.50;;;;;;;;;;5038775;28;20198;-57
2023/04/23 12:35:41;;;;;;;2.00;1.45;;;;;;;;;;5037007;28;20541;-57
2023/04/23 12:38:22;;;;;;;1.48;1.38;;;;;;;;;;5038230;28;20193;-57
2023/04/23 12:40:51;;;;;;;1.60;1.50;;;;;;;;;;5035151;28;20263;-57
2023/04/23 12:43:19;;;;;;;1.58;1.48;;;;;;;;;;5037742;28;20671;-57
2023/04/23 12:45:46;;;;;;;1.60;1.40;;;;;;;;;;5038331;28;20267;-57
2023/04/23 12:48:14;;;;;;;1.98;1.50;;;;;;;;;;5037639;28;20194;-57
2023/04/23 12:50:42;;;;;;;1.40;1.30;;;;;;;;;;5037855;28;20281;-57
2023/04/23 12:53:10;;;;;;;1.50;1.40;;;;;;;;;;5037355;28;20241;-57
2023/04/23 12:55:38;;;;;;;1.70;1.52;;;;;;;;;;5037713;28;20291;-57
2023/04/23 12:58:08;;;;;;;1.42;1.23;;;;;;;;;;5037915;28;20296;-57
2023/04/23 13:00:35;;;;;;;1.73;1.50;;;;;;;;;;5038123;28;20233;-57
2023/04/23 13:03:03;;;;;;;2.00;1.27;;;;;;;;;;5037872;28;20197;-57
2023/04/23 13:05:31;;;;;;;2.20;1.25;;;;;;;;;;5038062;28;20485;-57
2023/04/23 13:07:58;;;;;;;1.63;1.50;;;;;;;;;;5037015;28;20613;-57
2023/04/23 13:10:29;;;;;;;1.50;1.40;;;;;;;;;;5037296;28;20233;-57
2023/04/23 13:12:57;;;;;;;1.40;1.30;;;;;;;;;;5037858;28;20202;-57
2023/04/23 13:15:26;;;;;;;1.30;1.20;;;;;;;;;;5037967;28;20261;-57
2023/04/23 13:17:53;;;;;;;2.40;1.33;;;;;;;;;;5037946;28;20213;-57
2023/04/23 13:20:21;;;;;;;1.42;1.30;;;;;;;;;;5037581;28;20263;-57
2023/04/23 13:22:49;;;;;;;1.58;1.25;;;;;;;;;;5037017;28;20202;-57
2023/04/23 13:25:18;;;;;;;1.20;1.10;;;;;;;;;;5037622;28;20566;-57
2023/04/23 13:27:46;;;;;;;1.45;1.30;;;;;;;;;;5037304;28;20585;-59
2023/04/23 13:30:14;;;;;;;1.48;1.23;;;;;;;;;;5038071;28;20283;-57
2023/04/23 13:32:43;;;;;;;2.13;1.33;;;;;;;;;;5037278;28;20213;-57
2023/04/23 13:35:13;;;;;;;1.08;1.05;;;;;;;;;;5037391;28;20230;-57
2023/04/23 13:37:41;;;;;;;1.95;1.30;;;;;;;;;;5037425;28;20533;-57
2023/04/23 13:40:10;;;;;;;1.80;1.20;;;;;;;;;;5037966;28;20264;-57
2023/04/23 13:42:37;;;;;;;1.33;1.23;;;;;;;;;;5037109;28;20788;-57
2023/04/23 13:45:06;;;;;;;1.40;1.30;;;;;;;;;;5037752;28;20201;-57
2023/04/23 13:47:33;;;;;;;2.15;1.30;;;;;;;;;;5037676;28;20504;-57
2023/04/23 13:50:05;;;;;;;1.30;1.20;;;;;;;;;;5036193;28;20209;-57
2023/04/23 13:52:33;;;;;;;1.60;1.50;;;;;;;;;;5036319;28;20549;-57
2023/04/23 13:55:02;;;;;;;1.40;1.30;;;;;;;;;;5036682;28;20221;-57
2023/04/23 13:57:30;;;;;;;2.17;1.30;;;;;;;;;;5036341;28;20214;-57
2023/04/23 13:59:59;;;;;;;1.60;1.20;;;;;;;;;;5036871;28;20237;-57
2023/04/23 14:02:27;;;;;;;1.45;1.35;;;;;;;;;;5036682;28;20213;-57
2023/04/23 14:04:54;;;;;;;1.55;1.45;;;;;;;;;;5037284;28;20202;-57
2023/04/23 14:07:23;;;;;;;1.92;1.40;;;;;;;;;;5036695;28;20263;-57
2023/04/23 14:09:51;;;;;;;1.80;1.25;;;;;;;;;;5036685;28;20208;-57
2023/04/23 14:12:19;;;;;;;1.60;1.20;;;;;;;;;;5035557;28;20206;-57
2023/04/23 14:14:46;;;;;;;1.88;1.10;;;;;;;;;;5036940;28;20315;-57
2023/04/23 14:17:14;;;;;;;1.35;1.25;;;;;;;;;;5037192;28;20205;-57
2023/04/23 14:19:41;;;;;;;1.42;1.33;;;;;;;;;;5036113;28;20197;-57
2023/04/23 14:22:09;;;;;;;1.65;1.38;;;;;;;;;;5036215;28;20202;-57
2023/04/23 14:24:40;;;;;;;1.10;1.10;;;;;;;;;;5036462;28;20739;-57
2023/04/23 14:27:07;;;;;;;2.42;1.38;;;;;;;;;;5035836;28;20574;-57
2023/04/23 14:29:37;;;;;;;1.40;1.30;;;;;;;;;;5036591;28;20209;-58
2023/04/23 14:32:05;;;;;;;2.35;1.35;;;;;;;;;;5035808;28;20211;-58
2023/04/23 14:34:33;;;;;;;2.65;1.23;;;;;;;;;;5036219;28;20221;-58
2023/04/23 14:37:01;;;;;;;1.80;1.20;;;;;;;;;;5035702;28;20206;-58
2023/04/23 14:39:29;;;;;;;1.15;1.05;;;;;;;;;;5035122;28;20613;-58
2023/04/23 14:41:58;;;;;;;2.17;1.33;;;;;;;;;;5035920;28;20231;-58
2023/04/23 14:44:26;;;;;;;2.00;1.20;;;;;;;;;;5036075;28;20198;-58
2023/04/23 14:46:53;;;;;;;1.50;1.10;;;;;;;;;;5035464;28;20237;-58
2023/04/23 14:49:21;;;;;;;1.27;1.10;;;;;;;;;;5035912;28;20489;-58
2023/04/23 14:51:52;;;;;;;1.40;1.13;;;;;;;;;;5035955;28;20481;-58
2023/04/23 14:54:20;;;;;;;1.90;1.10;;;;;;;;;;5035617;28;20221;-58